Terminal Aerodrome Forecast
Issued by NWS Salt Lake City, UT

Home | Current Version | Previous Version | Text Only | Print | Product List | Glossary On
Versions: 1 2 3 4 5 6 7 8 9 10 11 12
000
FTUS45 KSLC 260540
TAFCDC
TAF
KCDC 260540Z 2606/2706 12007KT 6SM FU SCT150
     FM261600 21010KT P6SM SCT120
     FM261900 21013G20KT P6SM SCT120
     FM270200 20010KT P6SM FEW120=

USA.gov is the U.S. government's official web portal to all federal, state and local government web resources and services.